EmailTwitter


Observations de surface / Royaume-Uni / EGLL (03772)

Régions: Québec | Canada | États-Unis | Europe | France | UK | Ailleurs
Station
Affichage
Infos & localisation pour EGLL (03772) | Aide pour décoder les METARs

Observations prises le 2018-05-25 à 20H20 UTC à LONDON/HEATHROW, UK (EGLL)

Température: 17.0 Celsius

Point de rosée: 14.0 Celsius

Humidité relative: 82%

Vents: Variable à 6 km/h ou 3 noeuds.

Pression au niveau moyen de la mer: 101.90 kilopascals.

Visibilité horizontale: 4.97 milles terrestres ou 7.95 kilomètres.

Observation METAR:

EGLL 252020Z AUTO VRB03KT 8000 NCD 17/14 Q1019 NOSIG=